Accueil
METAR-TAF:

METAR-TAF

Aéroports :

Wakkanai, Japon

latitude: 45-24N, longitude: 141-48E, altitude: 8 m

Observation

Le bulletin a été fait il y a 9 heures et 17 minutes, à 09:00 UTC
Vent 14 kt de nord-ouest
Température 3°C
Humidité 87%
Pression 1007 hPa
Visibilité 10 km ou plus
Quelques nuages à une hauteur de 800 ft
Nuages fragmentés à une hauteur de 1000 ft
Nuages fragmentés à une hauteur de 1500 ft
faibles averses de pluie

METAR: RJCW 070900Z 31014KT 9999 -SHRA FEW008 BKN010 BKN015 03/01 Q1007

Heure: 03:17 (18:17 UTC)


TAF: absent

Observations et prévisions météorologiques de plus de 4000 aéroports (messages METAR et TAF).

Les stations disponibles sont représentées par des disques jaunes et rouges sur la carte.

Passer la souris dessus pour voir le nom de la station.

Cliquer dessus pour voir les observations et prévisions météorologiques.

Pour changer de carte: cliquez sur les boutons verts avec une croix noire pour zoomer, sur le bouton vert avec un tiret pour effectuer un zoom arrière, ou sur les flèches vertes pour les cartes adjacentes.


METAR-TAF: